createdAt,value
2023-02-17T00:00:39.575Z,100.00
2023-02-17T00:03:11.094Z,100.00
2023-02-17T00:05:42.944Z,100.00
2023-02-17T00:08:14.493Z,100.00
2023-02-17T00:10:46.352Z,100.00
2023-02-17T00:13:17.870Z,100.00
2023-02-17T00:15:49.855Z,100.00
2023-02-17T00:18:21.407Z,100.00
2023-02-17T00:20:53.417Z,100.00
2023-02-17T00:23:24.917Z,100.00
2023-02-17T00:25:56.440Z,100.00
2023-02-17T00:28:28.191Z,100.00
2023-02-17T00:30:59.939Z,100.00
2023-02-17T00:33:31.501Z,100.00
2023-02-17T00:36:03.527Z,100.00
2023-02-17T00:38:35.213Z,100.00
2023-02-17T00:41:07.212Z,100.00
2023-02-17T00:43:38.739Z,100.00
2023-02-17T00:46:10.706Z,100.00
2023-02-17T00:48:42.322Z,100.00
2023-02-17T00:51:13.919Z,100.00
2023-02-17T00:53:45.775Z,100.00
2023-02-17T00:56:17.288Z,100.00
2023-02-17T00:58:49.206Z,100.00
2023-02-17T01:01:20.795Z,100.00
2023-02-17T01:03:52.863Z,100.00
2023-02-17T01:06:24.553Z,100.00
2023-02-17T01:08:56.387Z,100.00
2023-02-17T01:11:27.897Z,100.00
2023-02-17T01:13:59.639Z,100.00
2023-02-17T01:16:34.964Z,100.00
2023-02-17T01:19:06.830Z,100.00
2023-02-17T01:21:38.361Z,100.00
2023-02-17T01:24:09.936Z,100.00
2023-02-17T01:26:41.454Z,100.00
2023-02-17T01:29:13.355Z,100.00
2023-02-17T01:31:44.924Z,100.00
2023-02-17T01:34:16.546Z,100.00
2023-02-17T01:36:48.030Z,100.00
2023-02-17T01:39:20.080Z,100.00
2023-02-17T01:41:51.583Z,100.00
2023-02-17T01:44:23.408Z,100.00
2023-02-17T01:46:55.007Z,100.00
2023-02-17T01:49:26.928Z,100.00
2023-02-17T01:51:58.492Z,100.00
2023-02-17T01:54:30.296Z,100.00
2023-02-17T01:57:01.822Z,100.00
2023-02-17T01:59:33.555Z,100.00
2023-02-17T02:02:05.174Z,100.00
2023-02-17T02:04:37.144Z,100.00
2023-02-17T02:07:08.647Z,100.00
2023-02-17T02:09:40.665Z,100.00
2023-02-17T02:12:12.199Z,100.00
2023-02-17T02:14:44.002Z,100.00
2023-02-17T02:17:15.509Z,100.00
2023-02-17T02:19:47.431Z,100.00
2023-02-17T02:22:18.937Z,100.00
2023-02-17T02:24:50.725Z,100.00
2023-02-17T02:27:22.226Z,100.00
2023-02-17T02:29:54.426Z,100.00
2023-02-17T02:32:25.930Z,100.00
2023-02-17T02:34:57.624Z,100.00
2023-02-17T02:37:29.128Z,100.00
2023-02-17T02:40:00.945Z,100.00
2023-02-17T02:42:32.439Z,100.00
2023-02-17T02:45:04.433Z,100.00
2023-02-17T02:47:35.996Z,100.00
2023-02-17T02:50:07.527Z,100.00
2023-02-17T02:52:39.064Z,100.00
2023-02-17T02:55:11.052Z,100.00
2023-02-17T02:57:42.576Z,100.00
2023-02-17T03:00:14.103Z,100.00
2023-02-17T03:02:45.991Z,100.00
2023-02-17T03:05:17.527Z,100.00
2023-02-17T03:07:49.043Z,100.00
2023-02-17T03:10:20.609Z,100.00
2023-02-17T03:12:52.112Z,100.00
2023-02-17T03:15:23.948Z,100.00
2023-02-17T03:17:55.453Z,100.00
2023-02-17T03:20:27.214Z,100.00
2023-02-17T03:22:58.738Z,100.00
2023-02-17T03:25:30.762Z,100.00
2023-02-17T03:28:02.283Z,100.00
2023-02-17T03:30:34.071Z,100.00
2023-02-17T03:33:05.610Z,100.00
2023-02-17T03:35:37.458Z,100.00
2023-02-17T03:38:08.967Z,100.00
2023-02-17T03:40:40.841Z,100.00
2023-02-17T03:43:12.352Z,100.00
2023-02-17T03:45:44.060Z,100.00
2023-02-17T03:48:15.585Z,100.00
2023-02-17T03:50:47.387Z,100.00
2023-02-17T03:53:18.894Z,100.00
2023-02-17T03:55:50.806Z,100.00
2023-02-17T03:58:22.318Z,100.00
2023-02-17T04:00:54.189Z,100.00
2023-02-17T04:03:25.681Z,100.00
2023-02-17T04:05:57.628Z,100.00
2023-02-17T04:08:29.319Z,100.00
2023-02-17T04:11:01.040Z,100.00
2023-02-17T04:13:32.594Z,100.00
2023-02-17T04:16:05.267Z,100.00
2023-02-17T04:18:37.284Z,100.00
2023-02-17T04:21:09.156Z,100.00
2023-02-17T04:23:40.677Z,100.00
2023-02-17T04:26:12.604Z,100.00
2023-02-17T04:28:44.128Z,100.00
2023-02-17T04:31:15.812Z,100.00
2023-02-17T04:33:47.487Z,100.00
2023-02-17T04:36:19.057Z,100.00
2023-02-17T04:38:50.580Z,100.00
2023-02-17T04:41:22.403Z,100.00
2023-02-17T04:43:53.931Z,100.00
2023-02-17T04:46:25.775Z,100.00
2023-02-17T04:48:57.260Z,100.00
2023-02-17T04:51:29.080Z,100.00
2023-02-17T04:54:00.643Z,100.00
2023-02-17T04:56:32.726Z,100.00
2023-02-17T04:59:04.285Z,100.00
2023-02-17T05:01:36.367Z,100.00
2023-02-17T05:04:07.977Z,100.00
2023-02-17T05:06:39.833Z,100.00
2023-02-17T05:09:11.440Z,100.00
2023-02-17T05:11:43.336Z,100.00
2023-02-17T05:14:14.843Z,100.00
2023-02-17T05:16:46.704Z,100.00
2023-02-17T05:19:18.291Z,100.00
2023-02-17T05:21:51.724Z,100.00
2023-02-17T05:24:23.227Z,100.00
2023-02-17T05:26:54.927Z,100.00
2023-02-17T05:29:26.437Z,100.00
2023-02-17T05:31:58.186Z,100.00
2023-02-17T05:34:29.813Z,100.00
2023-02-17T05:37:01.327Z,100.00
2023-02-17T05:39:32.844Z,100.00
2023-02-17T05:42:04.551Z,100.00
2023-02-17T05:44:36.074Z,100.00
2023-02-17T05:47:07.919Z,100.00
2023-02-17T05:49:39.445Z,100.00
2023-02-17T05:52:11.242Z,100.00
2023-02-17T05:54:42.787Z,100.00
2023-02-17T05:57:14.377Z,100.00
2023-02-17T05:59:45.946Z,100.00
2023-02-17T06:02:17.504Z,100.00
2023-02-17T06:04:49.082Z,100.00
2023-02-17T06:07:20.768Z,100.00
2023-02-17T06:09:52.349Z,100.00
2023-02-17T06:12:24.147Z,100.00
2023-02-17T06:14:55.704Z,100.00
2023-02-17T06:17:27.614Z,100.00
2023-02-17T06:19:59.126Z,100.00
2023-02-17T06:22:30.991Z,100.00
2023-02-17T06:25:02.623Z,100.00
2023-02-17T06:27:34.182Z,100.00
2023-02-17T06:30:05.957Z,100.00
2023-02-17T06:32:37.805Z,100.00
2023-02-17T06:35:09.323Z,100.00
2023-02-17T06:37:41.147Z,100.00
2023-02-17T06:40:12.685Z,100.00
2023-02-17T06:42:44.200Z,100.00
2023-02-17T06:45:15.739Z,100.00
2023-02-17T06:47:47.895Z,100.00
2023-02-17T06:50:19.462Z,100.00
2023-02-17T06:52:51.013Z,100.00
2023-02-17T06:55:22.841Z,100.00
2023-02-17T06:57:54.354Z,100.00
2023-02-17T07:00:27.074Z,100.00
2023-02-17T07:02:58.736Z,100.00
2023-02-17T07:05:30.643Z,100.00
2023-02-17T07:08:02.226Z,100.00
2023-02-17T07:10:34.039Z,100.00
2023-02-17T07:13:05.615Z,100.00
2023-02-17T07:15:37.457Z,100.00
2023-02-17T07:18:09.006Z,100.00
2023-02-17T07:20:40.924Z,100.00
2023-02-17T07:23:12.824Z,100.00
2023-02-17T07:25:44.702Z,100.00
2023-02-17T07:28:16.222Z,100.00
2023-02-17T07:30:48.172Z,100.00
2023-02-17T07:33:19.722Z,100.00
2023-02-17T07:35:51.690Z,100.00
2023-02-17T07:38:23.187Z,100.00
2023-02-17T07:40:54.812Z,100.00
2023-02-17T07:43:26.327Z,100.00
2023-02-17T07:45:59.393Z,100.00
2023-02-17T07:48:31.031Z,100.00
2023-02-17T07:51:02.838Z,100.00
2023-02-17T07:53:34.338Z,100.00
2023-02-17T07:56:06.390Z,100.00
2023-02-17T07:58:38.076Z,100.00
2023-02-17T08:01:09.769Z,100.00
2023-02-17T08:03:41.297Z,100.00
2023-02-17T08:06:13.227Z,100.00
2023-02-17T08:09:03.599Z,100.00
2023-02-17T08:11:53.750Z,100.00
2023-02-17T08:14:25.273Z,100.00
2023-02-17T08:16:57.013Z,100.00
2023-02-17T08:19:42.782Z,100.00
2023-02-17T08:22:18.241Z,100.00
2023-02-17T08:24:49.770Z,100.00
2023-02-17T08:27:21.451Z,100.00
2023-02-17T08:29:55.566Z,100.00
2023-02-17T08:32:27.292Z,100.00
2023-02-17T08:34:58.879Z,100.00
2023-02-17T08:37:31.972Z,100.00
2023-02-17T08:40:03.663Z,100.00
2023-02-17T08:42:35.582Z,100.00
2023-02-17T08:45:07.091Z,100.00
2023-02-17T08:47:38.864Z,100.00
2023-02-17T08:50:10.356Z,100.00
2023-02-17T08:52:42.271Z,100.00
2023-02-17T08:55:13.832Z,100.00
2023-02-17T08:57:45.545Z,100.00
2023-02-17T09:00:17.166Z,100.00
2023-02-17T09:02:49.069Z,100.00
2023-02-17T09:05:20.592Z,100.00
2023-02-17T09:07:52.411Z,100.00
2023-02-17T09:10:23.919Z,100.00
2023-02-17T09:12:55.754Z,100.00
2023-02-17T09:15:27.310Z,100.00
2023-02-17T09:17:59.179Z,100.00
2023-02-17T09:20:30.698Z,100.00
2023-02-17T09:23:02.604Z,100.00
2023-02-17T09:25:34.512Z,100.00
2023-02-17T09:28:06.484Z,100.00
2023-02-17T09:30:38.041Z,100.00
2023-02-17T09:33:09.867Z,100.00
2023-02-17T09:35:41.374Z,100.00
2023-02-17T09:38:12.940Z,100.00
2023-02-17T09:40:49.232Z,100.00
2023-02-17T09:43:21.241Z,100.00
2023-02-17T09:45:52.819Z,100.00
2023-02-17T09:48:24.636Z,100.00
2023-02-17T09:50:56.164Z,100.00
2023-02-17T09:53:27.978Z,100.00
2023-02-17T09:55:59.482Z,100.00
2023-02-17T09:58:31.348Z,100.00
2023-02-17T10:01:04.190Z,100.00
2023-02-17T10:03:36.231Z,100.00
2023-02-17T10:06:08.156Z,100.00
2023-02-17T10:08:40.441Z,100.00
2023-02-17T10:11:12.083Z,100.00
2023-02-17T10:13:43.986Z,100.00
2023-02-17T10:16:15.577Z,100.00
2023-02-17T10:18:47.652Z,100.00
2023-02-17T10:21:24.045Z,100.00
2023-02-17T10:23:55.684Z,100.00
2023-02-17T10:26:27.216Z,100.00
2023-02-17T10:28:58.900Z,100.00
2023-02-17T10:31:30.659Z,100.00
2023-02-17T10:34:03.295Z,100.00
2023-02-17T10:36:34.867Z,100.00
2023-02-17T10:39:06.474Z,100.00
2023-02-17T10:41:37.973Z,100.00
2023-02-17T10:44:09.648Z,100.00
2023-02-17T10:46:41.589Z,100.00
2023-02-17T10:49:13.138Z,100.00
2023-02-17T10:51:44.967Z,100.00
2023-02-17T10:54:16.580Z,100.00
2023-02-17T10:56:48.563Z,100.00
2023-02-17T10:59:20.053Z,100.00
2023-02-17T11:01:51.655Z,100.00
2023-02-17T11:04:23.164Z,100.00
2023-02-17T11:06:58.049Z,100.00
2023-02-17T11:09:32.680Z,100.00
2023-02-17T11:12:04.207Z,100.00
2023-02-17T11:14:35.685Z,100.00
2023-02-17T11:17:07.413Z,100.00
2023-02-17T11:19:39.168Z,100.00
2023-02-17T11:22:12.928Z,100.00
2023-02-17T11:24:44.527Z,100.00
2023-02-17T11:27:16.062Z,100.00
2023-02-17T11:29:47.575Z,100.00
2023-02-17T11:32:20.082Z,100.00
2023-02-17T11:34:51.608Z,100.00
2023-02-17T11:37:24.810Z,100.00
2023-02-17T11:39:56.375Z,100.00
2023-02-17T11:42:28.275Z,100.00
2023-02-17T11:44:59.765Z,100.00
2023-02-17T11:47:31.370Z,100.00
2023-02-17T11:50:02.928Z,100.00
2023-02-17T11:52:34.735Z,100.00
2023-02-17T11:55:06.268Z,100.00
2023-02-17T11:57:38.163Z,100.00
2023-02-17T12:00:09.643Z,100.00
2023-02-17T12:02:41.415Z,100.00
2023-02-17T12:05:13.041Z,100.00
2023-02-17T12:07:45.865Z,100.00
2023-02-17T12:10:17.509Z,100.00
2023-02-17T12:12:49.049Z,100.00
2023-02-17T12:15:20.812Z,100.00
2023-02-17T12:17:52.600Z,100.00
2023-02-17T12:20:24.082Z,100.00
2023-02-17T12:22:55.946Z,100.00
2023-02-17T12:25:34.117Z,100.00
2023-02-17T12:28:06.074Z,100.00
2023-02-17T12:30:37.626Z,100.00
2023-02-17T12:33:09.596Z,100.00
2023-02-17T12:35:41.248Z,100.00
2023-02-17T12:38:13.130Z,100.00
2023-02-17T12:40:44.630Z,100.00
2023-02-17T12:43:16.122Z,100.00
2023-02-17T12:45:47.871Z,100.00
2023-02-17T12:48:19.461Z,100.00
2023-02-17T12:50:50.958Z,100.00
2023-02-17T12:53:22.456Z,100.00
2023-02-17T12:55:53.917Z,100.00
2023-02-17T12:58:25.737Z,100.00
2023-02-17T13:00:57.264Z,100.00
2023-02-17T13:03:29.269Z,100.00
2023-02-17T13:06:00.797Z,100.00
2023-02-17T13:08:33.794Z,100.00
2023-02-17T13:11:05.263Z,100.00
2023-02-17T13:13:37.136Z,100.00
2023-02-17T13:16:09.265Z,100.00
2023-02-17T13:18:41.327Z,100.00
2023-02-17T13:21:12.832Z,100.00
2023-02-17T13:23:44.702Z,100.00
2023-02-17T13:26:17.841Z,100.00
2023-02-17T13:28:49.637Z,100.00
2023-02-17T13:31:21.149Z,100.00
2023-02-17T13:33:52.774Z,100.00
2023-02-17T13:36:24.329Z,100.00
2023-02-17T13:38:56.474Z,100.00
2023-02-17T13:41:28.022Z,100.00
2023-02-17T13:43:59.863Z,100.00
2023-02-17T13:46:31.362Z,100.00
2023-02-17T13:49:03.778Z,100.00
2023-02-17T13:51:35.403Z,100.00
2023-02-17T13:54:07.201Z,100.00
2023-02-17T13:56:38.726Z,100.00
2023-02-17T13:59:10.696Z,100.00
2023-02-17T14:01:42.234Z,100.00
2023-02-17T14:04:13.814Z,100.00
2023-02-17T14:06:45.300Z,100.00
2023-02-17T14:09:16.860Z,100.00
2023-02-17T14:11:48.351Z,100.00
2023-02-17T14:14:19.850Z,100.00
2023-02-17T14:16:51.338Z,100.00
2023-02-17T14:19:23.066Z,100.00
2023-02-17T14:21:54.632Z,100.00
2023-02-17T14:24:26.307Z,100.00
2023-02-17T14:26:58.140Z,100.00
2023-02-17T14:29:30.047Z,100.00
2023-02-17T14:32:01.675Z,100.00
2023-02-17T14:34:34.218Z,100.00
2023-02-17T14:37:05.800Z,100.00
2023-02-17T14:39:37.553Z,100.00
2023-02-17T14:42:09.108Z,100.00
2023-02-17T14:44:40.974Z,100.00
2023-02-17T14:47:12.563Z,100.00
2023-02-17T14:49:44.122Z,100.00
2023-02-17T14:52:15.721Z,100.00
2023-02-17T14:54:47.243Z,100.00
2023-02-17T14:57:18.809Z,100.00
2023-02-17T14:59:50.370Z,100.00
2023-02-17T15:02:21.874Z,100.00
2023-02-17T15:04:53.774Z,100.00
2023-02-17T15:07:25.319Z,100.00
2023-02-17T15:09:57.174Z,100.00
2023-02-17T15:12:28.677Z,100.00
2023-02-17T15:15:00.188Z,100.00
2023-02-17T15:17:31.707Z,100.00
2023-02-17T15:20:05.723Z,100.00
2023-02-17T15:22:41.545Z,100.00
2023-02-17T15:25:13.835Z,100.00
2023-02-17T15:27:45.345Z,100.00
2023-02-17T15:30:16.917Z,100.00
2023-02-17T15:32:48.505Z,100.00
2023-02-17T15:35:20.022Z,100.00
2023-02-17T15:37:51.544Z,100.00
2023-02-17T15:40:23.294Z,100.00
2023-02-17T15:42:54.810Z,100.00
2023-02-17T15:45:26.359Z,100.00
2023-02-17T15:47:57.868Z,100.00
2023-02-17T15:50:29.783Z,100.00
2023-02-17T15:53:01.470Z,100.00
2023-02-17T15:55:33.477Z,100.00
2023-02-17T15:58:05.255Z,100.00
2023-02-17T16:00:37.207Z,100.00
2023-02-17T16:03:09.121Z,100.00
2023-02-17T16:05:40.721Z,100.00
2023-02-17T16:08:12.825Z,100.00
2023-02-17T16:10:45.516Z,100.00
2023-02-17T16:13:17.255Z,100.00
2023-02-17T16:15:49.020Z,100.00
2023-02-17T16:18:21.113Z,100.00
2023-02-17T16:20:52.723Z,100.00
2023-02-17T16:23:24.749Z,100.00
2023-02-17T16:25:56.258Z,100.00
2023-02-17T16:28:27.956Z,100.00
2023-02-17T16:30:59.509Z,100.00
2023-02-17T16:33:31.249Z,100.00
2023-02-17T16:36:02.779Z,100.00
2023-02-17T16:38:34.988Z,100.00
2023-02-17T16:41:07.768Z,100.00
2023-02-17T16:43:39.608Z,100.00
2023-02-17T16:46:11.330Z,100.00
2023-02-17T16:48:43.252Z,100.00
2023-02-17T16:51:14.796Z,100.00
2023-02-17T16:53:46.664Z,100.00
2023-02-17T16:56:18.325Z,100.00
2023-02-17T16:58:50.061Z,100.00
2023-02-17T17:01:23.961Z,100.00
2023-02-17T17:03:56.048Z,100.00
2023-02-17T17:06:27.798Z,100.00
2023-02-17T17:08:59.702Z,100.00
2023-02-17T17:11:31.217Z,100.00
2023-02-17T17:14:02.991Z,100.00
2023-02-17T17:16:34.853Z,100.00
2023-02-17T17:19:06.778Z,100.00
2023-02-17T17:21:38.295Z,100.00
2023-02-17T17:24:10.164Z,100.00
2023-02-17T17:26:43.792Z,100.00
2023-02-17T17:29:15.360Z,100.00
2023-02-17T17:31:46.977Z,100.00
2023-02-17T17:34:18.575Z,100.00
2023-02-17T17:36:50.091Z,100.00
2023-02-17T17:39:21.752Z,100.00
2023-02-17T17:41:53.346Z,100.00
2023-02-17T17:44:27.759Z,100.00
2023-02-17T17:46:59.382Z,100.00
2023-02-17T17:49:31.278Z,100.00
2023-02-17T17:52:02.918Z,100.00
2023-02-17T17:54:34.864Z,100.00
2023-02-17T17:57:06.467Z,100.00
2023-02-17T17:59:38.280Z,100.00
2023-02-17T18:02:09.850Z,100.00
2023-02-17T18:04:41.765Z,100.00
2023-02-17T18:07:13.433Z,100.00
2023-02-17T18:09:45.144Z,100.00
2023-02-17T18:12:16.741Z,100.00
2023-02-17T18:14:48.673Z,100.00
2023-02-17T18:17:20.577Z,100.00
2023-02-17T18:19:55.264Z,100.00
2023-02-17T18:22:26.770Z,100.00
2023-02-17T18:24:58.673Z,100.00
2023-02-17T18:27:30.203Z,100.00
2023-02-17T18:30:01.797Z,100.00
2023-02-17T18:32:33.359Z,100.00
2023-02-17T18:35:05.885Z,100.00
2023-02-17T18:37:37.399Z,100.00
2023-02-17T18:40:09.126Z,100.00
2023-02-17T18:42:40.708Z,100.00
2023-02-17T18:45:12.237Z,100.00
2023-02-17T18:47:43.824Z,100.00
2023-02-17T18:50:15.418Z,100.00
2023-02-17T18:52:46.962Z,100.00
2023-02-17T18:55:18.474Z,100.00
2023-02-17T18:57:50.010Z,100.00
2023-02-17T19:00:21.518Z,100.00
2023-02-17T19:02:53.268Z,100.00
2023-02-17T19:05:24.822Z,100.00
2023-02-17T19:07:56.368Z,100.00
2023-02-17T19:10:27.903Z,100.00
2023-02-17T19:12:59.459Z,100.00
2023-02-17T19:15:31.325Z,100.00
2023-02-17T19:18:02.896Z,100.00
2023-02-17T19:20:34.637Z,100.00
2023-02-17T19:23:06.128Z,100.00
2023-02-17T19:25:37.986Z,100.00
2023-02-17T19:28:09.499Z,100.00
2023-02-17T19:30:41.114Z,100.00
2023-02-17T19:33:12.629Z,100.00
2023-02-17T19:35:44.198Z,98.07
2023-02-17T19:38:15.709Z,100.00
2023-02-17T19:40:47.319Z,93.34
2023-02-17T19:43:18.828Z,92.35
2023-02-17T19:45:50.716Z,90.57
2023-02-17T19:48:24.199Z,92.86
2023-02-17T19:50:56.298Z,90.03
2023-02-17T19:53:27.857Z,90.38
2023-02-17T19:55:59.403Z,86.34
2023-02-17T19:58:30.935Z,87.48
2023-02-17T20:01:02.785Z,87.59
2023-02-17T20:03:34.413Z,84.40
2023-02-17T20:06:06.544Z,82.82
2023-02-17T20:08:38.275Z,84.80
2023-02-17T20:11:10.207Z,80.16
2023-02-17T20:13:46.057Z,82.40
2023-02-17T20:16:18.235Z,80.55
2023-02-17T20:18:49.805Z,80.63
2023-02-17T20:21:24.450Z,80.45
2023-02-17T20:23:56.088Z,81.23
2023-02-17T20:26:28.046Z,82.51
2023-02-17T20:28:59.627Z,85.14
2023-02-17T20:31:31.716Z,84.44
2023-02-17T20:34:04.021Z,84.31
2023-02-17T20:36:35.798Z,85.15
2023-02-17T20:39:07.342Z,86.54
2023-02-17T20:41:39.306Z,87.07
2023-02-17T20:44:10.984Z,88.50
2023-02-17T20:46:42.898Z,89.68
2023-02-17T20:49:15.049Z,89.64
2023-02-17T20:51:46.812Z,90.44
2023-02-17T20:54:18.437Z,92.31
2023-02-17T20:56:50.357Z,92.70
2023-02-17T20:59:21.992Z,92.32
2023-02-17T21:01:54.011Z,93.20
2023-02-17T21:04:25.496Z,92.96
2023-02-17T21:06:57.386Z,92.01
2023-02-17T21:09:28.927Z,93.03
2023-02-17T21:12:00.996Z,92.43
2023-02-17T21:14:32.539Z,91.89
2023-02-17T21:17:04.470Z,92.08
2023-02-17T21:19:36.009Z,92.48
2023-02-17T21:22:07.589Z,93.01
2023-02-17T21:24:39.118Z,93.21
2023-02-17T21:27:11.058Z,93.99
2023-02-17T21:29:42.597Z,93.65
2023-02-17T21:32:14.405Z,92.45
2023-02-17T21:34:45.984Z,92.06
2023-02-17T21:37:17.807Z,93.13
2023-02-17T21:39:49.466Z,93.62
2023-02-17T21:42:41.238Z,94.18
2023-02-17T21:45:12.779Z,94.72
2023-02-17T21:47:45.841Z,95.17
2023-02-17T21:50:17.394Z,95.02
2023-02-17T21:52:49.328Z,95.39
2023-02-17T21:55:20.850Z,95.12
2023-02-17T21:57:52.865Z,94.81
2023-02-17T22:00:24.387Z,94.41
2023-02-17T22:02:56.264Z,94.35
2023-02-17T22:05:27.952Z,93.07
2023-02-17T22:07:59.841Z,93.31
2023-02-17T22:10:31.704Z,93.18
2023-02-17T22:13:03.293Z,93.59
2023-02-17T22:15:34.831Z,92.82
2023-02-17T22:18:06.389Z,91.41
2023-02-17T22:20:38.041Z,92.04
2023-02-17T22:23:09.720Z,91.81
2023-02-17T22:25:41.323Z,92.27
2023-02-17T22:28:14.445Z,92.04
2023-02-17T22:30:46.638Z,91.67
2023-02-17T22:33:18.169Z,92.09
2023-02-17T22:35:49.724Z,91.82
2023-02-17T22:38:21.272Z,91.84
2023-02-17T22:40:53.172Z,92.29
2023-02-17T22:43:24.843Z,92.66
2023-02-17T22:45:56.437Z,92.22
2023-02-17T22:48:28.038Z,92.69
2023-02-17T22:50:59.900Z,92.66
2023-02-17T22:53:31.405Z,93.25
2023-02-17T22:56:03.296Z,92.24
2023-02-17T22:58:34.837Z,92.67
2023-02-17T23:01:06.883Z,93.73
2023-02-17T23:03:38.483Z,93.61
2023-02-17T23:06:10.199Z,93.34
2023-02-17T23:08:43.105Z,93.21
2023-02-17T23:11:14.719Z,92.98
2023-02-17T23:13:46.279Z,93.37
2023-02-17T23:16:17.849Z,93.48
2023-02-17T23:18:49.406Z,93.75
2023-02-17T23:21:20.973Z,94.00
2023-02-17T23:23:52.471Z,94.68
2023-02-17T23:26:24.443Z,94.89
2023-02-17T23:28:56.128Z,94.44
2023-02-17T23:31:28.084Z,94.49
2023-02-17T23:33:59.648Z,95.29
2023-02-17T23:36:31.156Z,95.27
2023-02-17T23:39:02.845Z,95.50
2023-02-17T23:41:34.715Z,95.34
2023-02-17T23:44:06.231Z,96.00
2023-02-17T23:46:37.936Z,96.34
2023-02-17T23:49:09.437Z,96.04
2023-02-17T23:51:41.368Z,96.62
2023-02-17T23:54:13.010Z,96.67
2023-02-17T23:56:44.700Z,97.19
2023-02-17T23:59:16.247Z,97.67
